sensor_id;sensor_type;location;lat;lon;timestamp;P1;durP1;ratioP1;P2;durP2;ratioP2
10894;SDS011;5500;49.886;8.074;2023-07-24T00:00:39;5.67;;;2.33;;
10894;SDS011;5500;49.886;8.074;2023-07-24T00:03:07;3.43;;;2.40;;
10894;SDS011;5500;49.886;8.074;2023-07-24T00:05:37;3.87;;;2.43;;
10894;SDS011;5500;49.886;8.074;2023-07-24T00:08:04;2.83;;;2.20;;
10894;SDS011;5500;49.886;8.074;2023-07-24T00:10:33;7.50;;;2.50;;
10894;SDS011;5500;49.886;8.074;2023-07-24T00:13:01;2.10;;;1.90;;
10894;SDS011;5500;49.886;8.074;2023-07-24T00:15:29;3.00;;;2.20;;
10894;SDS011;5500;49.886;8.074;2023-07-24T00:17:57;2.10;;;1.90;;
10894;SDS011;5500;49.886;8.074;2023-07-24T00:20:29;2.50;;;2.30;;
10894;SDS011;5500;49.886;8.074;2023-07-24T00:23:04;2.27;;;2.10;;
10894;SDS011;5500;49.886;8.074;2023-07-24T00:25:31;3.03;;;2.10;;
10894;SDS011;5500;49.886;8.074;2023-07-24T00:27:59;2.23;;;2.03;;
10894;SDS011;5500;49.886;8.074;2023-07-24T00:30:27;3.23;;;2.43;;
10894;SDS011;5500;49.886;8.074;2023-07-24T00:32:55;2.73;;;1.90;;
10894;SDS011;5500;49.886;8.074;2023-07-24T00:35:22;2.90;;;2.00;;
10894;SDS011;5500;49.886;8.074;2023-07-24T00:37:50;4.00;;;2.53;;
10894;SDS011;5500;49.886;8.074;2023-07-24T00:40:20;2.80;;;2.30;;
10894;SDS011;5500;49.886;8.074;2023-07-24T00:42:47;5.43;;;2.10;;
10894;SDS011;5500;49.886;8.074;2023-07-24T00:45:15;2.33;;;2.07;;
10894;SDS011;5500;49.886;8.074;2023-07-24T00:47:43;3.33;;;2.27;;
10894;SDS011;5500;49.886;8.074;2023-07-24T00:50:11;2.83;;;1.90;;
10894;SDS011;5500;49.886;8.074;2023-07-24T00:52:40;2.30;;;2.00;;
10894;SDS011;5500;49.886;8.074;2023-07-24T00:55:07;2.50;;;2.23;;
10894;SDS011;5500;49.886;8.074;2023-07-24T00:57:37;2.70;;;2.30;;
10894;SDS011;5500;49.886;8.074;2023-07-24T01:00:06;3.10;;;2.30;;
10894;SDS011;5500;49.886;8.074;2023-07-24T01:02:34;2.33;;;2.13;;
10894;SDS011;5500;49.886;8.074;2023-07-24T01:05:02;2.70;;;2.20;;
10894;SDS011;5500;49.886;8.074;2023-07-24T01:07:31;1.93;;;1.70;;
10894;SDS011;5500;49.886;8.074;2023-07-24T01:10:01;1.83;;;1.70;;
10894;SDS011;5500;49.886;8.074;2023-07-24T01:12:31;2.37;;;2.17;;
10894;SDS011;5500;49.886;8.074;2023-07-24T01:15:03;3.00;;;2.47;;
10894;SDS011;5500;49.886;8.074;2023-07-24T01:17:34;2.73;;;2.17;;
10894;SDS011;5500;49.886;8.074;2023-07-24T01:20:07;2.60;;;2.17;;
10894;SDS011;5500;49.886;8.074;2023-07-24T01:22:38;2.60;;;2.40;;
10894;SDS011;5500;49.886;8.074;2023-07-24T01:25:10;3.20;;;2.20;;
10894;SDS011;5500;49.886;8.074;2023-07-24T01:27:43;2.30;;;2.10;;
10894;SDS011;5500;49.886;8.074;2023-07-24T01:30:11;3.93;;;2.20;;
10894;SDS011;5500;49.886;8.074;2023-07-24T01:32:40;2.50;;;2.30;;
10894;SDS011;5500;49.886;8.074;2023-07-24T01:35:08;2.73;;;2.20;;
10894;SDS011;5500;49.886;8.074;2023-07-24T01:37:35;2.50;;;2.07;;
10894;SDS011;5500;49.886;8.074;2023-07-24T01:40:06;3.63;;;2.23;;
10894;SDS011;5500;49.886;8.074;2023-07-24T01:42:34;2.47;;;2.27;;
10894;SDS011;5500;49.886;8.074;2023-07-24T01:45:04;2.67;;;2.20;;
10894;SDS011;5500;49.886;8.074;2023-07-24T01:47:32;3.63;;;2.43;;
10894;SDS011;5500;49.886;8.074;2023-07-24T01:50:00;5.23;;;2.83;;
10894;SDS011;5500;49.886;8.074;2023-07-24T01:52:28;2.90;;;2.30;;
10894;SDS011;5500;49.886;8.074;2023-07-24T01:54:56;3.87;;;2.43;;
10894;SDS011;5500;49.886;8.074;2023-07-24T01:57:23;2.33;;;2.10;;
10894;SDS011;5500;49.886;8.074;2023-07-24T01:59:51;4.37;;;2.20;;
10894;SDS011;5500;49.886;8.074;2023-07-24T02:02:20;2.77;;;2.30;;
10894;SDS011;5500;49.886;8.074;2023-07-24T02:04:48;3.87;;;2.50;;
10894;SDS011;5500;49.886;8.074;2023-07-24T02:07:15;4.23;;;2.27;;
10894;SDS011;5500;49.886;8.074;2023-07-24T02:09:43;2.67;;;2.47;;
10894;SDS011;5500;49.886;8.074;2023-07-24T02:12:12;2.93;;;2.17;;
10894;SDS011;5500;49.886;8.074;2023-07-24T02:14:42;2.50;;;2.30;;
10894;SDS011;5500;49.886;8.074;2023-07-24T02:17:10;3.00;;;2.30;;
10894;SDS011;5500;49.886;8.074;2023-07-24T02:19:39;2.80;;;2.33;;
10894;SDS011;5500;49.886;8.074;2023-07-24T02:22:07;2.40;;;2.20;;
10894;SDS011;5500;49.886;8.074;2023-07-24T02:24:35;3.40;;;2.30;;
10894;SDS011;5500;49.886;8.074;2023-07-24T02:27:02;2.87;;;2.43;;
10894;SDS011;5500;49.886;8.074;2023-07-24T02:29:31;3.70;;;2.10;;
10894;SDS011;5500;49.886;8.074;2023-07-24T02:32:00;2.73;;;2.53;;
10894;SDS011;5500;49.886;8.074;2023-07-24T02:34:27;2.83;;;2.50;;
10894;SDS011;5500;49.886;8.074;2023-07-24T02:36:56;2.87;;;2.30;;
10894;SDS011;5500;49.886;8.074;2023-07-24T02:39:24;3.27;;;2.40;;
10894;SDS011;5500;49.886;8.074;2023-07-24T02:41:52;2.20;;;2.00;;
10894;SDS011;5500;49.886;8.074;2023-07-24T02:44:19;3.00;;;2.20;;
10894;SDS011;5500;49.886;8.074;2023-07-24T02:46:47;3.73;;;2.37;;
10894;SDS011;5500;49.886;8.074;2023-07-24T02:49:15;4.20;;;2.23;;
10894;SDS011;5500;49.886;8.074;2023-07-24T02:51:43;6.33;;;2.50;;
10894;SDS011;5500;49.886;8.074;2023-07-24T02:54:12;3.03;;;2.50;;
10894;SDS011;5500;49.886;8.074;2023-07-24T02:56:39;3.40;;;2.50;;
10894;SDS011;5500;49.886;8.074;2023-07-24T02:59:07;2.93;;;2.47;;
10894;SDS011;5500;49.886;8.074;2023-07-24T03:01:35;2.83;;;2.33;;
10894;SDS011;5500;49.886;8.074;2023-07-24T03:04:03;2.87;;;2.40;;
10894;SDS011;5500;49.886;8.074;2023-07-24T03:06:31;4.87;;;2.37;;
10894;SDS011;5500;49.886;8.074;2023-07-24T03:08:59;2.33;;;2.13;;
10894;SDS011;5500;49.886;8.074;2023-07-24T03:11:28;2.80;;;2.10;;
10894;SDS011;5500;49.886;8.074;2023-07-24T03:13:56;3.37;;;2.10;;
10894;SDS011;5500;49.886;8.074;2023-07-24T03:16:23;3.33;;;2.30;;
10894;SDS011;5500;49.886;8.074;2023-07-24T03:18:51;2.23;;;2.03;;
10894;SDS011;5500;49.886;8.074;2023-07-24T03:21:19;5.23;;;2.60;;
10894;SDS011;5500;49.886;8.074;2023-07-24T03:23:47;2.57;;;2.37;;
10894;SDS011;5500;49.886;8.074;2023-07-24T03:26:15;2.83;;;2.40;;
10894;SDS011;5500;49.886;8.074;2023-07-24T03:28:44;2.50;;;2.30;;
10894;SDS011;5500;49.886;8.074;2023-07-24T03:31:12;3.63;;;2.33;;
10894;SDS011;5500;49.886;8.074;2023-07-24T03:33:40;2.80;;;2.20;;
10894;SDS011;5500;49.886;8.074;2023-07-24T03:36:07;3.33;;;2.27;;
10894;SDS011;5500;49.886;8.074;2023-07-24T03:38:35;3.23;;;2.60;;
10894;SDS011;5500;49.886;8.074;2023-07-24T03:41:03;3.53;;;2.30;;
10894;SDS011;5500;49.886;8.074;2023-07-24T03:43:30;5.17;;;2.60;;
10894;SDS011;5500;49.886;8.074;2023-07-24T03:45:59;2.70;;;2.50;;
10894;SDS011;5500;49.886;8.074;2023-07-24T03:48:27;2.83;;;2.27;;
10894;SDS011;5500;49.886;8.074;2023-07-24T03:50:57;4.03;;;3.03;;
10894;SDS011;5500;49.886;8.074;2023-07-24T03:53:25;2.93;;;2.53;;
10894;SDS011;5500;49.886;8.074;2023-07-24T03:55:53;2.87;;;2.27;;
10894;SDS011;5500;49.886;8.074;2023-07-24T03:58:21;3.07;;;2.77;;
10894;SDS011;5500;49.886;8.074;2023-07-24T04:00:48;3.37;;;3.07;;
10894;SDS011;5500;49.886;8.074;2023-07-24T04:03:17;3.23;;;2.93;;
10894;SDS011;5500;49.886;8.074;2023-07-24T04:05:45;3.47;;;2.70;;
10894;SDS011;5500;49.886;8.074;2023-07-24T04:08:13;3.70;;;2.73;;
10894;SDS011;5500;49.886;8.074;2023-07-24T04:10:41;2.83;;;2.60;;
10894;SDS011;5500;49.886;8.074;2023-07-24T04:13:08;3.67;;;2.90;;
10894;SDS011;5500;49.886;8.074;2023-07-24T04:15:36;4.57;;;2.60;;
10894;SDS011;5500;49.886;8.074;2023-07-24T04:18:06;4.20;;;2.87;;
10894;SDS011;5500;49.886;8.074;2023-07-24T04:20:35;2.80;;;2.60;;
10894;SDS011;5500;49.886;8.074;2023-07-24T04:23:03;3.97;;;2.53;;
10894;SDS011;5500;49.886;8.074;2023-07-24T04:25:31;2.70;;;2.50;;
10894;SDS011;5500;49.886;8.074;2023-07-24T04:27:58;2.70;;;2.50;;
10894;SDS011;5500;49.886;8.074;2023-07-24T04:30:26;3.27;;;2.53;;
10894;SDS011;5500;49.886;8.074;2023-07-24T04:32:54;4.53;;;2.63;;
10894;SDS011;5500;49.886;8.074;2023-07-24T04:35:22;3.10;;;2.40;;
10894;SDS011;5500;49.886;8.074;2023-07-24T04:37:51;3.57;;;2.50;;
10894;SDS011;5500;49.886;8.074;2023-07-24T04:40:18;2.87;;;2.57;;
10894;SDS011;5500;49.886;8.074;2023-07-24T04:42:46;2.77;;;2.57;;
10894;SDS011;5500;49.886;8.074;2023-07-24T04:45:13;5.87;;;2.57;;
10894;SDS011;5500;49.886;8.074;2023-07-24T04:47:41;3.67;;;2.50;;
10894;SDS011;5500;49.886;8.074;2023-07-24T04:50:09;3.27;;;2.10;;
10894;SDS011;5500;49.886;8.074;2023-07-24T04:52:37;4.37;;;2.13;;
10894;SDS011;5500;49.886;8.074;2023-07-24T04:55:06;2.67;;;2.47;;
10894;SDS011;5500;49.886;8.074;2023-07-24T04:57:34;3.13;;;2.50;;
10894;SDS011;5500;49.886;8.074;2023-07-24T05:00:02;4.60;;;2.73;;
10894;SDS011;5500;49.886;8.074;2023-07-24T05:02:31;2.90;;;2.60;;
10894;SDS011;5500;49.886;8.074;2023-07-24T05:04:59;8.70;;;2.83;;
10894;SDS011;5500;49.886;8.074;2023-07-24T05:07:27;3.03;;;2.60;;
10894;SDS011;5500;49.886;8.074;2023-07-24T05:09:54;3.10;;;2.70;;
10894;SDS011;5500;49.886;8.074;2023-07-24T05:12:23;3.60;;;2.70;;
10894;SDS011;5500;49.886;8.074;2023-07-24T05:14:51;4.33;;;2.27;;
10894;SDS011;5500;49.886;8.074;2023-07-24T05:17:19;4.33;;;2.80;;
10894;SDS011;5500;49.886;8.074;2023-07-24T05:19:46;5.00;;;2.47;;
10894;SDS011;5500;49.886;8.074;2023-07-24T05:22:14;4.63;;;2.60;;
10894;SDS011;5500;49.886;8.074;2023-07-24T05:24:42;3.20;;;2.67;;
10894;SDS011;5500;49.886;8.074;2023-07-24T05:27:10;3.37;;;2.60;;
10894;SDS011;5500;49.886;8.074;2023-07-24T05:29:40;5.20;;;2.87;;
10894;SDS011;5500;49.886;8.074;2023-07-24T05:32:10;4.97;;;2.60;;
10894;SDS011;5500;49.886;8.074;2023-07-24T05:34:38;3.53;;;2.70;;
10894;SDS011;5500;49.886;8.074;2023-07-24T05:37:06;3.93;;;2.87;;
10894;SDS011;5500;49.886;8.074;2023-07-24T05:39:33;2.80;;;2.60;;
10894;SDS011;5500;49.886;8.074;2023-07-24T05:42:01;3.17;;;2.70;;
10894;SDS011;5500;49.886;8.074;2023-07-24T05:44:29;2.93;;;2.50;;
10894;SDS011;5500;49.886;8.074;2023-07-24T05:46:58;3.00;;;2.70;;
10894;SDS011;5500;49.886;8.074;2023-07-24T05:49:26;3.00;;;2.70;;
10894;SDS011;5500;49.886;8.074;2023-07-24T05:51:53;3.70;;;2.80;;
10894;SDS011;5500;49.886;8.074;2023-07-24T05:54:22;2.87;;;2.40;;
10894;SDS011;5500;49.886;8.074;2023-07-24T05:56:51;2.43;;;2.23;;
10894;SDS011;5500;49.886;8.074;2023-07-24T05:59:19;3.90;;;2.40;;
10894;SDS011;5500;49.886;8.074;2023-07-24T06:01:47;2.87;;;2.33;;
10894;SDS011;5500;49.886;8.074;2023-07-24T06:04:16;3.77;;;2.83;;
10894;SDS011;5500;49.886;8.074;2023-07-24T06:06:44;3.13;;;2.40;;
10894;SDS011;5500;49.886;8.074;2023-07-24T06:09:12;5.30;;;2.30;;
10894;SDS011;5500;49.886;8.074;2023-07-24T06:11:39;5.43;;;3.00;;
10894;SDS011;5500;49.886;8.074;2023-07-24T06:14:07;2.93;;;2.43;;
10894;SDS011;5500;49.886;8.074;2023-07-24T06:16:35;4.57;;;2.43;;
10894;SDS011;5500;49.886;8.074;2023-07-24T06:19:03;3.03;;;2.40;;
10894;SDS011;5500;49.886;8.074;2023-07-24T06:21:32;3.83;;;2.50;;
10894;SDS011;5500;49.886;8.074;2023-07-24T06:24:01;6.47;;;2.47;;
10894;SDS011;5500;49.886;8.074;2023-07-24T06:26:29;3.00;;;2.60;;
10894;SDS011;5500;49.886;8.074;2023-07-24T06:28:58;3.33;;;2.50;;
10894;SDS011;5500;49.886;8.074;2023-07-24T06:31:26;3.20;;;2.30;;
10894;SDS011;5500;49.886;8.074;2023-07-24T06:33:54;5.13;;;2.80;;
10894;SDS011;5500;49.886;8.074;2023-07-24T06:36:22;3.23;;;2.47;;
10894;SDS011;5500;49.886;8.074;2023-07-24T06:38:51;2.70;;;2.40;;
10894;SDS011;5500;49.886;8.074;2023-07-24T06:41:19;4.20;;;2.73;;
10894;SDS011;5500;49.886;8.074;2023-07-24T06:43:49;4.50;;;2.87;;
10894;SDS011;5500;49.886;8.074;2023-07-24T06:46:19;2.87;;;2.50;;
10894;SDS011;5500;49.886;8.074;2023-07-24T06:48:47;2.63;;;2.40;;
10894;SDS011;5500;49.886;8.074;2023-07-24T06:51:15;2.83;;;2.50;;
10894;SDS011;5500;49.886;8.074;2023-07-24T06:53:43;2.60;;;2.20;;
10894;SDS011;5500;49.886;8.074;2023-07-24T06:56:12;4.37;;;2.70;;
10894;SDS011;5500;49.886;8.074;2023-07-24T06:58:40;3.33;;;2.50;;
10894;SDS011;5500;49.886;8.074;2023-07-24T07:01:07;4.60;;;2.73;;
10894;SDS011;5500;49.886;8.074;2023-07-24T07:03:35;2.90;;;2.47;;
10894;SDS011;5500;49.886;8.074;2023-07-24T07:06:04;2.83;;;2.33;;
10894;SDS011;5500;49.886;8.074;2023-07-24T07:08:33;5.30;;;2.90;;
10894;SDS011;5500;49.886;8.074;2023-07-24T07:11:01;4.30;;;2.90;;
10894;SDS011;5500;49.886;8.074;2023-07-24T07:13:30;3.87;;;2.90;;
10894;SDS011;5500;49.886;8.074;2023-07-24T07:15:59;3.73;;;2.63;;
10894;SDS011;5500;49.886;8.074;2023-07-24T07:18:27;3.10;;;2.80;;
10894;SDS011;5500;49.886;8.074;2023-07-24T07:20:54;4.37;;;2.90;;
10894;SDS011;5500;49.886;8.074;2023-07-24T07:23:22;4.37;;;2.70;;
10894;SDS011;5500;49.886;8.074;2023-07-24T07:25:50;9.57;;;3.43;;
10894;SDS011;5500;49.886;8.074;2023-07-24T07:28:18;5.03;;;2.60;;
10894;SDS011;5500;49.886;8.074;2023-07-24T07:30:47;4.83;;;2.80;;
10894;SDS011;5500;49.886;8.074;2023-07-24T07:33:15;5.07;;;2.90;;
10894;SDS011;5500;49.886;8.074;2023-07-24T07:35:43;5.33;;;2.90;;
10894;SDS011;5500;49.886;8.074;2023-07-24T07:38:11;5.03;;;2.97;;
10894;SDS011;5500;49.886;8.074;2023-07-24T07:40:38;3.07;;;2.77;;
10894;SDS011;5500;49.886;8.074;2023-07-24T07:43:06;4.60;;;2.80;;
10894;SDS011;5500;49.886;8.074;2023-07-24T07:45:34;4.00;;;3.10;;
10894;SDS011;5500;49.886;8.074;2023-07-24T07:48:04;6.07;;;2.97;;
10894;SDS011;5500;49.886;8.074;2023-07-24T07:50:32;5.77;;;3.10;;
10894;SDS011;5500;49.886;8.074;2023-07-24T07:53:00;4.77;;;3.20;;
10894;SDS011;5500;49.886;8.074;2023-07-24T07:55:28;3.13;;;2.80;;
10894;SDS011;5500;49.886;8.074;2023-07-24T07:57:56;3.43;;;2.93;;
10894;SDS011;5500;49.886;8.074;2023-07-24T08:00:26;3.60;;;3.00;;
10894;SDS011;5500;49.886;8.074;2023-07-24T08:02:54;3.37;;;3.00;;
10894;SDS011;5500;49.886;8.074;2023-07-24T08:05:23;3.40;;;3.03;;
10894;SDS011;5500;49.886;8.074;2023-07-24T08:07:51;4.30;;;2.87;;
10894;SDS011;5500;49.886;8.074;2023-07-24T08:10:19;3.27;;;2.77;;
10894;SDS011;5500;49.886;8.074;2023-07-24T08:12:47;3.27;;;2.67;;
10894;SDS011;5500;49.886;8.074;2023-07-24T08:15:15;3.00;;;2.53;;
10894;SDS011;5500;49.886;8.074;2023-07-24T08:17:43;4.03;;;2.73;;
10894;SDS011;5500;49.886;8.074;2023-07-24T08:20:11;3.93;;;2.73;;
10894;SDS011;5500;49.886;8.074;2023-07-24T08:22:40;5.10;;;3.00;;
10894;SDS011;5500;49.886;8.074;2023-07-24T08:25:08;3.40;;;2.67;;
10894;SDS011;5500;49.886;8.074;2023-07-24T08:27:36;6.07;;;2.70;;
10894;SDS011;5500;49.886;8.074;2023-07-24T08:30:24;4.83;;;3.30;;
10894;SDS011;5500;49.886;8.074;2023-07-24T08:32:52;3.63;;;2.70;;
10894;SDS011;5500;49.886;8.074;2023-07-24T08:35:20;2.70;;;2.33;;
10894;SDS011;5500;49.886;8.074;2023-07-24T08:37:50;3.63;;;2.87;;
10894;SDS011;5500;49.886;8.074;2023-07-24T08:40:18;2.80;;;2.60;;
10894;SDS011;5500;49.886;8.074;2023-07-24T08:42:46;2.57;;;2.37;;
10894;SDS011;5500;49.886;8.074;2023-07-24T08:45:16;2.40;;;2.20;;
10894;SDS011;5500;49.886;8.074;2023-07-24T08:47:45;2.97;;;2.60;;
10894;SDS011;5500;49.886;8.074;2023-07-24T08:50:13;2.80;;;2.37;;
10894;SDS011;5500;49.886;8.074;2023-07-24T08:52:42;4.80;;;2.60;;
10894;SDS011;5500;49.886;8.074;2023-07-24T08:55:13;3.27;;;2.70;;
10894;SDS011;5500;49.886;8.074;2023-07-24T08:57:40;2.87;;;2.37;;
10894;SDS011;5500;49.886;8.074;2023-07-24T09:00:09;3.37;;;2.93;;
10894;SDS011;5500;49.886;8.074;2023-07-24T09:02:38;3.20;;;2.70;;
10894;SDS011;5500;49.886;8.074;2023-07-24T09:05:06;4.37;;;2.80;;
10894;SDS011;5500;49.886;8.074;2023-07-24T09:07:35;4.27;;;2.90;;
10894;SDS011;5500;49.886;8.074;2023-07-24T09:10:04;3.10;;;2.80;;
10894;SDS011;5500;49.886;8.074;2023-07-24T09:12:38;2.77;;;2.57;;
10894;SDS011;5500;49.886;8.074;2023-07-24T09:15:09;4.37;;;2.40;;
10894;SDS011;5500;49.886;8.074;2023-07-24T09:17:46;4.73;;;2.73;;
10894;SDS011;5500;49.886;8.074;2023-07-24T09:20:15;3.70;;;2.83;;
10894;SDS011;5500;49.886;8.074;2023-07-24T09:22:57;5.07;;;2.77;;
10894;SDS011;5500;49.886;8.074;2023-07-24T09:25:31;4.47;;;3.23;;
10894;SDS011;5500;49.886;8.074;2023-07-24T09:28:00;5.07;;;2.80;;
10894;SDS011;5500;49.886;8.074;2023-07-24T09:30:28;3.23;;;2.93;;
10894;SDS011;5500;49.886;8.074;2023-07-24T09:32:56;3.80;;;2.80;;
10894;SDS011;5500;49.886;8.074;2023-07-24T09:35:25;4.87;;;2.87;;
10894;SDS011;5500;49.886;8.074;2023-07-24T09:38:01;3.23;;;2.93;;
10894;SDS011;5500;49.886;8.074;2023-07-24T09:40:37;4.00;;;3.40;;
10894;SDS011;5500;49.886;8.074;2023-07-24T09:43:17;3.07;;;2.77;;
10894;SDS011;5500;49.886;8.074;2023-07-24T09:46:03;3.17;;;2.87;;
10894;SDS011;5500;49.886;8.074;2023-07-24T09:48:32;3.97;;;3.57;;
10894;SDS011;5500;49.886;8.074;2023-07-24T09:51:03;5.47;;;3.50;;
10894;SDS011;5500;49.886;8.074;2023-07-24T09:53:32;3.50;;;3.20;;
10894;SDS011;5500;49.886;8.074;2023-07-24T09:56:02;3.97;;;3.33;;
10894;SDS011;5500;49.886;8.074;2023-07-24T09:58:33;4.40;;;3.60;;
10894;SDS011;5500;49.886;8.074;2023-07-24T10:01:03;3.78;;;3.38;;
10894;SDS011;5500;49.886;8.074;2023-07-24T10:03:33;4.70;;;3.67;;
10894;SDS011;5500;49.886;8.074;2023-07-24T10:06:02;4.47;;;4.07;;
10894;SDS011;5500;49.886;8.074;2023-07-24T10:08:30;3.80;;;3.42;;
10894;SDS011;5500;49.886;8.074;2023-07-24T10:10:58;4.45;;;3.65;;
10894;SDS011;5500;49.886;8.074;2023-07-24T10:13:26;3.90;;;3.50;;
10894;SDS011;5500;49.886;8.074;2023-07-24T10:15:56;4.55;;;4.15;;
10894;SDS011;5500;49.886;8.074;2023-07-24T10:18:26;4.43;;;4.03;;
10894;SDS011;5500;49.886;8.074;2023-07-24T10:20:59;6.70;;;3.88;;
10894;SDS011;5500;49.886;8.074;2023-07-24T10:23:27;3.70;;;3.37;;
10894;SDS011;5500;49.886;8.074;2023-07-24T10:25:55;4.25;;;3.72;;
10894;SDS011;5500;49.886;8.074;2023-07-24T10:28:30;4.20;;;3.58;;
10894;SDS011;5500;49.886;8.074;2023-07-24T10:31:00;4.78;;;4.07;;
10894;SDS011;5500;49.886;8.074;2023-07-24T10:33:29;8.30;;;4.07;;
10894;SDS011;5500;49.886;8.074;2023-07-24T10:36:05;4.25;;;3.33;;
10894;SDS011;5500;49.886;8.074;2023-07-24T10:38:36;6.25;;;4.10;;
10894;SDS011;5500;49.886;8.074;2023-07-24T10:41:06;4.10;;;3.65;;
10894;SDS011;5500;49.886;8.074;2023-07-24T10:43:41;3.85;;;3.40;;
10894;SDS011;5500;49.886;8.074;2023-07-24T10:46:15;5.53;;;3.60;;
10894;SDS011;5500;49.886;8.074;2023-07-24T10:48:46;4.47;;;4.07;;
10894;SDS011;5500;49.886;8.074;2023-07-24T10:51:14;4.55;;;3.70;;
10894;SDS011;5500;49.886;8.074;2023-07-24T10:53:43;5.28;;;3.08;;
10894;SDS011;5500;49.886;8.074;2023-07-24T10:56:13;5.10;;;4.07;;
10894;SDS011;5500;49.886;8.074;2023-07-24T10:58:41;4.25;;;3.67;;
10894;SDS011;5500;49.886;8.074;2023-07-24T11:01:09;5.78;;;4.05;;
10894;SDS011;5500;49.886;8.074;2023-07-24T11:03:39;6.60;;;4.05;;
10894;SDS011;5500;49.886;8.074;2023-07-24T11:06:12;4.63;;;3.50;;
10894;SDS011;5500;49.886;8.074;2023-07-24T11:08:42;5.30;;;3.67;;
10894;SDS011;5500;49.886;8.074;2023-07-24T11:11:18;5.28;;;3.65;;
10894;SDS011;5500;49.886;8.074;2023-07-24T11:13:46;4.03;;;3.55;;
10894;SDS011;5500;49.886;8.074;2023-07-24T11:16:13;5.55;;;3.70;;
10894;SDS011;5500;49.886;8.074;2023-07-24T11:18:46;4.53;;;3.70;;
10894;SDS011;5500;49.886;8.074;2023-07-24T11:21:20;5.32;;;3.78;;
10894;SDS011;5500;49.886;8.074;2023-07-24T11:23:50;4.07;;;3.67;;
10894;SDS011;5500;49.886;8.074;2023-07-24T11:26:19;4.13;;;3.58;;
10894;SDS011;5500;49.886;8.074;2023-07-24T11:28:48;4.60;;;3.63;;
10894;SDS011;5500;49.886;8.074;2023-07-24T11:31:16;3.55;;;3.25;;
10894;SDS011;5500;49.886;8.074;2023-07-24T11:33:47;5.40;;;3.30;;
10894;SDS011;5500;49.886;8.074;2023-07-24T11:36:16;4.35;;;3.45;;
10894;SDS011;5500;49.886;8.074;2023-07-24T11:38:44;3.72;;;3.38;;
10894;SDS011;5500;49.886;8.074;2023-07-24T11:41:12;4.22;;;3.33;;
10894;SDS011;5500;49.886;8.074;2023-07-24T11:43:45;4.97;;;3.15;;
10894;SDS011;5500;49.886;8.074;2023-07-24T11:46:22;5.38;;;3.53;;
10894;SDS011;5500;49.886;8.074;2023-07-24T11:48:52;3.22;;;2.92;;
10894;SDS011;5500;49.886;8.074;2023-07-24T11:51:23;3.83;;;3.45;;
10894;SDS011;5500;49.886;8.074;2023-07-24T11:53:52;3.70;;;3.40;;
10894;SDS011;5500;49.886;8.074;2023-07-24T11:56:20;5.38;;;4.15;;
10894;SDS011;5500;49.886;8.074;2023-07-24T11:58:48;3.80;;;3.20;;
10894;SDS011;5500;49.886;8.074;2023-07-24T12:01:16;3.67;;;3.30;;
10894;SDS011;5500;49.886;8.074;2023-07-24T12:03:44;3.08;;;2.85;;
10894;SDS011;5500;49.886;8.074;2023-07-24T12:06:15;5.60;;;3.10;;
10894;SDS011;5500;49.886;8.074;2023-07-24T12:08:43;3.40;;;3.10;;
10894;SDS011;5500;49.886;8.074;2023-07-24T12:11:18;4.78;;;3.50;;
10894;SDS011;5500;49.886;8.074;2023-07-24T12:13:45;4.80;;;3.38;;
10894;SDS011;5500;49.886;8.074;2023-07-24T12:16:13;5.47;;;3.50;;
10894;SDS011;5500;49.886;8.074;2023-07-24T12:18:41;3.45;;;3.15;;
10894;SDS011;5500;49.886;8.074;2023-07-24T12:21:08;5.30;;;3.50;;
10894;SDS011;5500;49.886;8.074;2023-07-24T12:23:37;6.90;;;3.10;;
10894;SDS011;5500;49.886;8.074;2023-07-24T12:26:05;3.97;;;3.58;;
10894;SDS011;5500;49.886;8.074;2023-07-24T12:28:33;3.65;;;3.05;;
10894;SDS011;5500;49.886;8.074;2023-07-24T12:31:01;3.80;;;3.35;;
10894;SDS011;5500;49.886;8.074;2023-07-24T12:33:30;3.33;;;3.13;;
10894;SDS011;5500;49.886;8.074;2023-07-24T12:35:59;3.33;;;3.03;;
10894;SDS011;5500;49.886;8.074;2023-07-24T12:38:32;4.88;;;3.42;;
10894;SDS011;5500;49.886;8.074;2023-07-24T12:41:04;3.38;;;3.10;;
10894;SDS011;5500;49.886;8.074;2023-07-24T12:43:31;5.32;;;3.50;;
10894;SDS011;5500;49.886;8.074;2023-07-24T12:45:59;4.40;;;3.15;;
10894;SDS011;5500;49.886;8.074;2023-07-24T12:48:27;4.10;;;3.40;;
10894;SDS011;5500;49.886;8.074;2023-07-24T12:50:57;4.38;;;3.58;;
10894;SDS011;5500;49.886;8.074;2023-07-24T12:53:26;3.55;;;3.20;;
10894;SDS011;5500;49.886;8.074;2023-07-24T12:56:02;3.83;;;3.53;;
10894;SDS011;5500;49.886;8.074;2023-07-24T12:58:31;5.80;;;3.50;;
10894;SDS011;5500;49.886;8.074;2023-07-24T13:00:58;4.60;;;3.85;;
10894;SDS011;5500;49.886;8.074;2023-07-24T13:03:26;3.50;;;3.17;;
10894;SDS011;5500;49.886;8.074;2023-07-24T13:05:54;4.53;;;3.20;;
10894;SDS011;5500;49.886;8.074;2023-07-24T13:08:22;4.95;;;3.10;;
10894;SDS011;5500;49.886;8.074;2023-07-24T13:10:50;3.38;;;3.08;;
10894;SDS011;5500;49.886;8.074;2023-07-24T13:13:19;3.53;;;3.20;;
10894;SDS011;5500;49.886;8.074;2023-07-24T13:15:47;4.00;;;2.50;;
10894;SDS011;5500;49.886;8.074;2023-07-24T13:18:16;4.68;;;3.08;;
10894;SDS011;5500;49.886;8.074;2023-07-24T13:20:54;3.17;;;2.92;;
10894;SDS011;5500;49.886;8.074;2023-07-24T13:23:21;8.13;;;3.60;;
10894;SDS011;5500;49.886;8.074;2023-07-24T13:25:51;4.07;;;3.60;;
10894;SDS011;5500;49.886;8.074;2023-07-24T13:28:20;7.53;;;4.10;;
10894;SDS011;5500;49.886;8.074;2023-07-24T13:30:48;5.85;;;4.47;;
10894;SDS011;5500;49.886;8.074;2023-07-24T13:33:16;4.07;;;3.67;;
10894;SDS011;5500;49.886;8.074;2023-07-24T13:35:44;5.13;;;4.10;;
10894;SDS011;5500;49.886;8.074;2023-07-24T13:38:11;6.07;;;3.83;;
10894;SDS011;5500;49.886;8.074;2023-07-24T13:40:40;5.22;;;3.78;;
10894;SDS011;5500;49.886;8.074;2023-07-24T13:43:08;3.35;;;3.05;;
10894;SDS011;5500;49.886;8.074;2023-07-24T13:45:37;4.17;;;3.30;;
10894;SDS011;5500;49.886;8.074;2023-07-24T13:48:05;3.58;;;3.15;;
10894;SDS011;5500;49.886;8.074;2023-07-24T13:50:33;5.45;;;4.00;;
10894;SDS011;5500;49.886;8.074;2023-07-24T13:53:00;3.65;;;3.05;;
10894;SDS011;5500;49.886;8.074;2023-07-24T13:55:28;2.85;;;2.65;;
10894;SDS011;5500;49.886;8.074;2023-07-24T13:57:56;3.58;;;3.00;;
10894;SDS011;5500;49.886;8.074;2023-07-24T14:00:23;4.13;;;3.10;;
10894;SDS011;5500;49.886;8.074;2023-07-24T14:02:52;3.35;;;3.05;;
10894;SDS011;5500;49.886;8.074;2023-07-24T14:05:20;3.30;;;3.00;;
10894;SDS011;5500;49.886;8.074;2023-07-24T14:07:48;3.05;;;2.80;;
10894;SDS011;5500;49.886;8.074;2023-07-24T14:10:16;4.07;;;2.83;;
10894;SDS011;5500;49.886;8.074;2023-07-24T14:12:43;2.95;;;2.75;;
10894;SDS011;5500;49.886;8.074;2023-07-24T14:15:12;4.60;;;3.03;;
10894;SDS011;5500;49.886;8.074;2023-07-24T14:17:40;3.03;;;2.72;;
10894;SDS011;5500;49.886;8.074;2023-07-24T14:20:10;3.95;;;3.00;;
10894;SDS011;5500;49.886;8.074;2023-07-24T14:22:38;3.22;;;2.92;;
10894;SDS011;5500;49.886;8.074;2023-07-24T14:25:06;4.45;;;2.50;;
10894;SDS011;5500;49.886;8.074;2023-07-24T14:27:34;2.83;;;2.63;;
10894;SDS011;5500;49.886;8.074;2023-07-24T14:30:02;2.20;;;2.00;;
10894;SDS011;5500;49.886;8.074;2023-07-24T14:32:30;2.00;;;1.80;;
10894;SDS011;5500;49.886;8.074;2023-07-24T14:34:58;2.85;;;2.00;;
10894;SDS011;5500;49.886;8.074;2023-07-24T14:37:27;3.33;;;2.08;;
10894;SDS011;5500;49.886;8.074;2023-07-24T14:39:55;2.55;;;2.20;;
10894;SDS011;5500;49.886;8.074;2023-07-24T14:42:22;2.90;;;2.60;;
10894;SDS011;5500;49.886;8.074;2023-07-24T14:44:50;2.63;;;2.42;;
10894;SDS011;5500;49.886;8.074;2023-07-24T14:47:17;2.67;;;2.47;;
10894;SDS011;5500;49.886;8.074;2023-07-24T14:49:45;2.60;;;2.40;;
10894;SDS011;5500;49.886;8.074;2023-07-24T14:52:13;2.28;;;2.08;;
10894;SDS011;5500;49.886;8.074;2023-07-24T14:54:42;3.97;;;2.40;;
10894;SDS011;5500;49.886;8.074;2023-07-24T14:57:09;9.18;;;3.00;;
10894;SDS011;5500;49.886;8.074;2023-07-24T14:59:50;10.43;;;2.70;;
10894;SDS011;5500;49.886;8.074;2023-07-24T15:02:18;8.75;;;2.22;;
10894;SDS011;5500;49.886;8.074;2023-07-24T15:04:46;5.60;;;2.30;;
10894;SDS011;5500;49.886;8.074;2023-07-24T15:07:14;3.80;;;1.90;;
10894;SDS011;5500;49.886;8.074;2023-07-24T15:09:43;3.85;;;2.08;;